El Paso, Texas
Current Conditions -  °F | °C
As of 3:51 AM on Friday 24 Oct 2014 (Local Time) from KELP Reporting Station
Clear Clear  
Wind Chill: 57°   Ceiling: Unl
Heat Index: 57°   Visibility: 10mi
Dew Point: 52°   Wind: 6mph
Humidity: 83%   Direction: 150°SSE
Pressure: 30.18"   Gusts: NA
Location:  31.76°N, 106.48°W
Report Text: KELP 240951Z 15005KT 10SM CLR 14/11 A3018 RMK AO2 SLP164 T01390111
Loading
Personal Weather Stations






























Interactive Weather Map
Tropical Storm Tracking
New forecast layout! Learn more

10-Day Weather Forecast

Advertisements
Track Severe Weather on mobile